sensor_id;sensor_type;location;lat;lon;timestamp;P1;durP1;ratioP1;P2;durP2;ratioP2
17790;SDS011;9019;48.132;-1.210;2023-08-06T00:01:04;10.97;;;3.00;;
17790;SDS011;9019;48.132;-1.210;2023-08-06T00:03:31;13.53;;;3.23;;
17790;SDS011;9019;48.132;-1.210;2023-08-06T00:05:59;14.43;;;3.20;;
17790;SDS011;9019;48.132;-1.210;2023-08-06T00:08:26;8.07;;;2.63;;
17790;SDS011;9019;48.132;-1.210;2023-08-06T00:10:53;14.17;;;2.87;;
17790;SDS011;9019;48.132;-1.210;2023-08-06T00:13:20;9.90;;;3.20;;
17790;SDS011;9019;48.132;-1.210;2023-08-06T00:15:49;13.27;;;3.53;;
17790;SDS011;9019;48.132;-1.210;2023-08-06T00:18:16;10.27;;;2.80;;
17790;SDS011;9019;48.132;-1.210;2023-08-06T00:20:44;16.03;;;3.13;;
17790;SDS011;9019;48.132;-1.210;2023-08-06T00:23:11;12.77;;;2.83;;
17790;SDS011;9019;48.132;-1.210;2023-08-06T00:25:38;7.93;;;2.60;;
17790;SDS011;9019;48.132;-1.210;2023-08-06T00:28:05;13.70;;;3.07;;
17790;SDS011;9019;48.132;-1.210;2023-08-06T00:30:33;9.00;;;2.63;;
17790;SDS011;9019;48.132;-1.210;2023-08-06T00:33:01;8.20;;;3.13;;
17790;SDS011;9019;48.132;-1.210;2023-08-06T00:35:29;11.27;;;2.97;;
17790;SDS011;9019;48.132;-1.210;2023-08-06T00:37:56;10.83;;;3.03;;
17790;SDS011;9019;48.132;-1.210;2023-08-06T00:40:24;13.43;;;3.00;;
17790;SDS011;9019;48.132;-1.210;2023-08-06T00:42:53;8.07;;;2.63;;
17790;SDS011;9019;48.132;-1.210;2023-08-06T00:45:20;11.97;;;2.60;;
17790;SDS011;9019;48.132;-1.210;2023-08-06T00:47:48;11.50;;;3.13;;
17790;SDS011;9019;48.132;-1.210;2023-08-06T00:50:17;9.03;;;2.67;;
17790;SDS011;9019;48.132;-1.210;2023-08-06T00:52:46;7.77;;;2.20;;
17790;SDS011;9019;48.132;-1.210;2023-08-06T00:55:13;9.00;;;2.70;;
17790;SDS011;9019;48.132;-1.210;2023-08-06T00:57:40;9.73;;;2.83;;
17790;SDS011;9019;48.132;-1.210;2023-08-06T01:00:08;7.97;;;2.30;;
17790;SDS011;9019;48.132;-1.210;2023-08-06T01:02:35;14.03;;;3.00;;
17790;SDS011;9019;48.132;-1.210;2023-08-06T01:05:03;9.63;;;2.70;;
17790;SDS011;9019;48.132;-1.210;2023-08-06T01:07:37;8.83;;;2.70;;
17790;SDS011;9019;48.132;-1.210;2023-08-06T01:10:10;8.00;;;2.70;;
17790;SDS011;9019;48.132;-1.210;2023-08-06T01:12:45;9.23;;;2.40;;
17790;SDS011;9019;48.132;-1.210;2023-08-06T01:15:13;8.83;;;2.80;;
17790;SDS011;9019;48.132;-1.210;2023-08-06T01:17:42;7.73;;;2.23;;
17790;SDS011;9019;48.132;-1.210;2023-08-06T01:20:09;8.37;;;2.63;;
17790;SDS011;9019;48.132;-1.210;2023-08-06T01:22:38;9.87;;;2.83;;
17790;SDS011;9019;48.132;-1.210;2023-08-06T01:25:05;9.70;;;2.37;;
17790;SDS011;9019;48.132;-1.210;2023-08-06T01:27:36;9.70;;;2.73;;
17790;SDS011;9019;48.132;-1.210;2023-08-06T01:30:06;10.83;;;2.57;;
17790;SDS011;9019;48.132;-1.210;2023-08-06T01:32:34;12.90;;;2.70;;
17790;SDS011;9019;48.132;-1.210;2023-08-06T01:35:02;8.53;;;2.60;;
17790;SDS011;9019;48.132;-1.210;2023-08-06T01:37:30;9.10;;;2.77;;
17790;SDS011;9019;48.132;-1.210;2023-08-06T01:39:59;11.63;;;2.80;;
17790;SDS011;9019;48.132;-1.210;2023-08-06T01:42:27;7.87;;;2.47;;
17790;SDS011;9019;48.132;-1.210;2023-08-06T01:44:54;11.53;;;2.50;;
17790;SDS011;9019;48.132;-1.210;2023-08-06T01:47:21;9.97;;;2.70;;
17790;SDS011;9019;48.132;-1.210;2023-08-06T01:49:49;9.97;;;2.67;;
17790;SDS011;9019;48.132;-1.210;2023-08-06T01:52:16;9.50;;;2.60;;
17790;SDS011;9019;48.132;-1.210;2023-08-06T01:54:43;10.33;;;2.47;;
17790;SDS011;9019;48.132;-1.210;2023-08-06T01:57:11;8.03;;;2.37;;
17790;SDS011;9019;48.132;-1.210;2023-08-06T01:59:39;9.47;;;2.70;;
17790;SDS011;9019;48.132;-1.210;2023-08-06T02:02:06;10.13;;;2.80;;
17790;SDS011;9019;48.132;-1.210;2023-08-06T02:04:33;10.33;;;2.80;;
17790;SDS011;9019;48.132;-1.210;2023-08-06T02:07:01;8.77;;;2.43;;
17790;SDS011;9019;48.132;-1.210;2023-08-06T02:09:28;10.50;;;2.57;;
17790;SDS011;9019;48.132;-1.210;2023-08-06T02:11:55;13.07;;;2.63;;
17790;SDS011;9019;48.132;-1.210;2023-08-06T02:14:24;9.73;;;2.57;;
17790;SDS011;9019;48.132;-1.210;2023-08-06T02:16:51;9.90;;;2.70;;
17790;SDS011;9019;48.132;-1.210;2023-08-06T02:19:18;17.77;;;3.17;;
17790;SDS011;9019;48.132;-1.210;2023-08-06T02:21:45;9.83;;;2.50;;
17790;SDS011;9019;48.132;-1.210;2023-08-06T02:24:12;12.60;;;2.87;;
17790;SDS011;9019;48.132;-1.210;2023-08-06T02:26:39;12.70;;;2.97;;
17790;SDS011;9019;48.132;-1.210;2023-08-06T02:29:07;9.87;;;2.67;;
17790;SDS011;9019;48.132;-1.210;2023-08-06T02:31:35;11.87;;;2.53;;
17790;SDS011;9019;48.132;-1.210;2023-08-06T02:34:02;8.30;;;2.50;;
17790;SDS011;9019;48.132;-1.210;2023-08-06T02:36:30;13.10;;;2.87;;
17790;SDS011;9019;48.132;-1.210;2023-08-06T02:38:57;11.93;;;2.63;;
17790;SDS011;9019;48.132;-1.210;2023-08-06T02:41:24;12.83;;;2.70;;
17790;SDS011;9019;48.132;-1.210;2023-08-06T02:43:52;8.30;;;2.30;;
17790;SDS011;9019;48.132;-1.210;2023-08-06T02:46:19;9.23;;;2.73;;
17790;SDS011;9019;48.132;-1.210;2023-08-06T02:48:48;8.07;;;2.43;;
17790;SDS011;9019;48.132;-1.210;2023-08-06T02:51:15;8.63;;;2.50;;
17790;SDS011;9019;48.132;-1.210;2023-08-06T02:53:43;9.10;;;2.50;;
17790;SDS011;9019;48.132;-1.210;2023-08-06T02:56:10;12.10;;;2.33;;
17790;SDS011;9019;48.132;-1.210;2023-08-06T02:58:37;10.77;;;2.50;;
17790;SDS011;9019;48.132;-1.210;2023-08-06T03:01:04;10.60;;;2.43;;
17790;SDS011;9019;48.132;-1.210;2023-08-06T03:03:33;9.37;;;2.70;;
17790;SDS011;9019;48.132;-1.210;2023-08-06T03:06:01;8.87;;;2.50;;
17790;SDS011;9019;48.132;-1.210;2023-08-06T03:08:28;13.47;;;2.50;;
17790;SDS011;9019;48.132;-1.210;2023-08-06T03:10:56;10.27;;;2.20;;
17790;SDS011;9019;48.132;-1.210;2023-08-06T03:13:23;8.47;;;2.37;;
17790;SDS011;9019;48.132;-1.210;2023-08-06T03:15:54;11.37;;;2.47;;
17790;SDS011;9019;48.132;-1.210;2023-08-06T03:18:21;11.13;;;2.33;;
17790;SDS011;9019;48.132;-1.210;2023-08-06T03:20:48;9.27;;;2.30;;
17790;SDS011;9019;48.132;-1.210;2023-08-06T03:23:17;11.77;;;2.43;;
17790;SDS011;9019;48.132;-1.210;2023-08-06T03:25:44;11.80;;;2.37;;
17790;SDS011;9019;48.132;-1.210;2023-08-06T03:28:12;11.97;;;2.47;;
17790;SDS011;9019;48.132;-1.210;2023-08-06T03:30:39;10.90;;;2.40;;
17790;SDS011;9019;48.132;-1.210;2023-08-06T03:33:06;15.20;;;2.67;;
17790;SDS011;9019;48.132;-1.210;2023-08-06T03:35:33;12.77;;;2.80;;
17790;SDS011;9019;48.132;-1.210;2023-08-06T03:38:01;12.97;;;2.83;;
17790;SDS011;9019;48.132;-1.210;2023-08-06T03:40:29;12.83;;;2.20;;
17790;SDS011;9019;48.132;-1.210;2023-08-06T03:42:56;9.93;;;2.30;;
17790;SDS011;9019;48.132;-1.210;2023-08-06T03:45:24;8.30;;;2.00;;
17790;SDS011;9019;48.132;-1.210;2023-08-06T03:47:51;9.67;;;2.13;;
17790;SDS011;9019;48.132;-1.210;2023-08-06T03:50:18;9.67;;;1.90;;
17790;SDS011;9019;48.132;-1.210;2023-08-06T03:52:45;7.17;;;2.20;;
17790;SDS011;9019;48.132;-1.210;2023-08-06T03:55:12;8.37;;;2.40;;
17790;SDS011;9019;48.132;-1.210;2023-08-06T03:57:41;8.77;;;2.30;;
17790;SDS011;9019;48.132;-1.210;2023-08-06T04:00:09;8.87;;;2.23;;
17790;SDS011;9019;48.132;-1.210;2023-08-06T04:02:36;8.43;;;2.20;;
17790;SDS011;9019;48.132;-1.210;2023-08-06T04:05:03;9.17;;;2.17;;
17790;SDS011;9019;48.132;-1.210;2023-08-06T04:07:31;15.47;;;2.87;;
17790;SDS011;9019;48.132;-1.210;2023-08-06T04:09:59;12.20;;;2.20;;
17790;SDS011;9019;48.132;-1.210;2023-08-06T04:12:27;10.73;;;1.93;;
17790;SDS011;9019;48.132;-1.210;2023-08-06T04:14:57;10.33;;;2.17;;
17790;SDS011;9019;48.132;-1.210;2023-08-06T04:17:24;12.77;;;2.07;;
17790;SDS011;9019;48.132;-1.210;2023-08-06T04:19:52;13.20;;;2.27;;
17790;SDS011;9019;48.132;-1.210;2023-08-06T04:22:20;9.43;;;2.17;;
17790;SDS011;9019;48.132;-1.210;2023-08-06T04:24:47;9.87;;;2.03;;
17790;SDS011;9019;48.132;-1.210;2023-08-06T04:27:15;13.37;;;2.00;;
17790;SDS011;9019;48.132;-1.210;2023-08-06T04:29:42;12.63;;;2.80;;
17790;SDS011;9019;48.132;-1.210;2023-08-06T04:32:11;10.37;;;2.27;;
17790;SDS011;9019;48.132;-1.210;2023-08-06T04:34:39;14.43;;;2.30;;
17790;SDS011;9019;48.132;-1.210;2023-08-06T04:37:06;12.60;;;2.53;;
17790;SDS011;9019;48.132;-1.210;2023-08-06T04:39:35;10.93;;;2.10;;
17790;SDS011;9019;48.132;-1.210;2023-08-06T04:42:03;10.53;;;2.20;;
17790;SDS011;9019;48.132;-1.210;2023-08-06T04:44:30;13.00;;;2.27;;
17790;SDS011;9019;48.132;-1.210;2023-08-06T04:46:57;11.50;;;2.10;;
17790;SDS011;9019;48.132;-1.210;2023-08-06T04:49:26;8.53;;;2.10;;
17790;SDS011;9019;48.132;-1.210;2023-08-06T04:51:53;13.47;;;2.40;;
17790;SDS011;9019;48.132;-1.210;2023-08-06T04:54:20;10.47;;;2.07;;
17790;SDS011;9019;48.132;-1.210;2023-08-06T04:56:48;10.97;;;2.20;;
17790;SDS011;9019;48.132;-1.210;2023-08-06T04:59:15;9.93;;;2.40;;
17790;SDS011;9019;48.132;-1.210;2023-08-06T05:01:42;11.30;;;2.20;;
17790;SDS011;9019;48.132;-1.210;2023-08-06T05:04:10;12.37;;;2.50;;
17790;SDS011;9019;48.132;-1.210;2023-08-06T05:06:38;10.37;;;2.60;;
17790;SDS011;9019;48.132;-1.210;2023-08-06T05:09:06;9.53;;;2.27;;
17790;SDS011;9019;48.132;-1.210;2023-08-06T05:11:33;13.33;;;1.93;;
17790;SDS011;9019;48.132;-1.210;2023-08-06T05:14:01;9.57;;;2.13;;
17790;SDS011;9019;48.132;-1.210;2023-08-06T05:16:28;8.97;;;1.83;;
17790;SDS011;9019;48.132;-1.210;2023-08-06T05:18:55;14.20;;;2.73;;
17790;SDS011;9019;48.132;-1.210;2023-08-06T05:21:22;11.97;;;2.33;;
17790;SDS011;9019;48.132;-1.210;2023-08-06T05:23:51;10.53;;;1.90;;
17790;SDS011;9019;48.132;-1.210;2023-08-06T05:26:18;12.20;;;2.23;;
17790;SDS011;9019;48.132;-1.210;2023-08-06T05:28:45;9.50;;;2.07;;
17790;SDS011;9019;48.132;-1.210;2023-08-06T05:31:13;9.03;;;2.00;;
17790;SDS011;9019;48.132;-1.210;2023-08-06T05:33:40;10.07;;;2.07;;
17790;SDS011;9019;48.132;-1.210;2023-08-06T05:36:08;10.27;;;2.27;;
17790;SDS011;9019;48.132;-1.210;2023-08-06T05:38:35;8.70;;;1.80;;
17790;SDS011;9019;48.132;-1.210;2023-08-06T05:41:04;11.47;;;2.53;;
17790;SDS011;9019;48.132;-1.210;2023-08-06T05:43:31;8.03;;;2.37;;
17790;SDS011;9019;48.132;-1.210;2023-08-06T05:45:58;7.30;;;2.13;;
17790;SDS011;9019;48.132;-1.210;2023-08-06T05:48:25;11.30;;;2.00;;
17790;SDS011;9019;48.132;-1.210;2023-08-06T05:50:53;11.27;;;2.13;;
17790;SDS011;9019;48.132;-1.210;2023-08-06T05:53:20;13.43;;;2.30;;
17790;SDS011;9019;48.132;-1.210;2023-08-06T05:55:47;9.47;;;2.00;;
17790;SDS011;9019;48.132;-1.210;2023-08-06T05:58:16;7.00;;;1.83;;
17790;SDS011;9019;48.132;-1.210;2023-08-06T06:00:45;11.13;;;2.20;;
17790;SDS011;9019;48.132;-1.210;2023-08-06T06:03:12;11.70;;;2.20;;
17790;SDS011;9019;48.132;-1.210;2023-08-06T06:05:39;10.23;;;1.97;;
17790;SDS011;9019;48.132;-1.210;2023-08-06T06:08:07;10.00;;;1.90;;
17790;SDS011;9019;48.132;-1.210;2023-08-06T06:10:34;10.93;;;2.13;;
17790;SDS011;9019;48.132;-1.210;2023-08-06T06:13:02;13.60;;;2.10;;
17790;SDS011;9019;48.132;-1.210;2023-08-06T06:15:30;9.40;;;2.00;;
17790;SDS011;9019;48.132;-1.210;2023-08-06T06:17:58;7.17;;;2.00;;
17790;SDS011;9019;48.132;-1.210;2023-08-06T06:20:25;10.20;;;2.17;;
17790;SDS011;9019;48.132;-1.210;2023-08-06T06:22:52;7.20;;;2.00;;
17790;SDS011;9019;48.132;-1.210;2023-08-06T06:25:19;9.02;;;1.90;;
17790;SDS011;9019;48.132;-1.210;2023-08-06T06:27:46;7.45;;;1.75;;
17790;SDS011;9019;48.132;-1.210;2023-08-06T06:30:14;9.63;;;1.83;;
17790;SDS011;9019;48.132;-1.210;2023-08-06T06:32:42;8.75;;;1.90;;
17790;SDS011;9019;48.132;-1.210;2023-08-06T06:35:10;7.82;;;1.70;;
17790;SDS011;9019;48.132;-1.210;2023-08-06T06:37:37;7.10;;;1.90;;
17790;SDS011;9019;48.132;-1.210;2023-08-06T06:40:05;5.05;;;1.83;;
17790;SDS011;9019;48.132;-1.210;2023-08-06T06:42:32;10.50;;;2.03;;
17790;SDS011;9019;48.132;-1.210;2023-08-06T06:44:59;6.15;;;1.70;;
17790;SDS011;9019;48.132;-1.210;2023-08-06T06:47:27;9.15;;;1.90;;
17790;SDS011;9019;48.132;-1.210;2023-08-06T06:49:55;7.07;;;1.70;;
17790;SDS011;9019;48.132;-1.210;2023-08-06T06:52:22;10.48;;;2.50;;
17790;SDS011;9019;48.132;-1.210;2023-08-06T06:54:50;8.85;;;2.20;;
17790;SDS011;9019;48.132;-1.210;2023-08-06T06:57:17;7.45;;;2.17;;
17790;SDS011;9019;48.132;-1.210;2023-08-06T06:59:44;6.72;;;1.67;;
17790;SDS011;9019;48.132;-1.210;2023-08-06T07:02:11;9.35;;;2.10;;
17790;SDS011;9019;48.132;-1.210;2023-08-06T07:04:38;11.15;;;2.00;;
17790;SDS011;9019;48.132;-1.210;2023-08-06T07:07:07;8.57;;;1.83;;
17790;SDS011;9019;48.132;-1.210;2023-08-06T07:09:35;7.72;;;1.77;;
17790;SDS011;9019;48.132;-1.210;2023-08-06T07:12:03;10.68;;;1.85;;
17790;SDS011;9019;48.132;-1.210;2023-08-06T07:14:30;9.93;;;1.95;;
17790;SDS011;9019;48.132;-1.210;2023-08-06T07:16:57;6.82;;;2.17;;
17790;SDS011;9019;48.132;-1.210;2023-08-06T07:19:25;7.13;;;2.05;;
17790;SDS011;9019;48.132;-1.210;2023-08-06T07:21:52;5.30;;;1.55;;
17790;SDS011;9019;48.132;-1.210;2023-08-06T07:24:22;5.63;;;1.75;;
17790;SDS011;9019;48.132;-1.210;2023-08-06T07:26:49;6.00;;;1.88;;
17790;SDS011;9019;48.132;-1.210;2023-08-06T07:29:17;8.45;;;1.90;;
17790;SDS011;9019;48.132;-1.210;2023-08-06T07:31:47;8.18;;;2.05;;
17790;SDS011;9019;48.132;-1.210;2023-08-06T07:34:15;9.52;;;1.85;;
17790;SDS011;9019;48.132;-1.210;2023-08-06T07:36:43;8.80;;;1.73;;
17790;SDS011;9019;48.132;-1.210;2023-08-06T07:39:10;5.55;;;1.58;;
17790;SDS011;9019;48.132;-1.210;2023-08-06T07:41:39;6.35;;;1.80;;
17790;SDS011;9019;48.132;-1.210;2023-08-06T07:44:06;6.68;;;1.63;;
17790;SDS011;9019;48.132;-1.210;2023-08-06T07:46:33;5.95;;;1.73;;
17790;SDS011;9019;48.132;-1.210;2023-08-06T07:49:01;6.20;;;1.70;;
17790;SDS011;9019;48.132;-1.210;2023-08-06T07:51:28;5.63;;;1.85;;
17790;SDS011;9019;48.132;-1.210;2023-08-06T07:53:55;5.32;;;1.70;;
17790;SDS011;9019;48.132;-1.210;2023-08-06T07:56:22;8.63;;;1.98;;
17790;SDS011;9019;48.132;-1.210;2023-08-06T07:58:51;5.82;;;1.63;;
17790;SDS011;9019;48.132;-1.210;2023-08-06T08:01:18;6.32;;;1.55;;
17790;SDS011;9019;48.132;-1.210;2023-08-06T08:03:46;5.13;;;1.42;;
17790;SDS011;9019;48.132;-1.210;2023-08-06T08:06:13;5.65;;;1.60;;
17790;SDS011;9019;48.132;-1.210;2023-08-06T08:08:40;8.07;;;1.75;;
17790;SDS011;9019;48.132;-1.210;2023-08-06T08:11:07;6.07;;;1.80;;
17790;SDS011;9019;48.132;-1.210;2023-08-06T08:13:35;5.82;;;1.58;;
17790;SDS011;9019;48.132;-1.210;2023-08-06T08:16:04;3.20;;;1.38;;
17790;SDS011;9019;48.132;-1.210;2023-08-06T08:18:32;5.20;;;1.48;;
17790;SDS011;9019;48.132;-1.210;2023-08-06T08:20:59;5.68;;;2.03;;
17790;SDS011;9019;48.132;-1.210;2023-08-06T08:23:26;5.47;;;1.60;;
17790;SDS011;9019;48.132;-1.210;2023-08-06T08:25:53;6.13;;;1.58;;
17790;SDS011;9019;48.132;-1.210;2023-08-06T08:28:21;4.13;;;1.63;;
17790;SDS011;9019;48.132;-1.210;2023-08-06T08:30:48;5.82;;;1.30;;
17790;SDS011;9019;48.132;-1.210;2023-08-06T08:33:17;5.47;;;1.42;;
17790;SDS011;9019;48.132;-1.210;2023-08-06T08:35:45;3.80;;;1.10;;
17790;SDS011;9019;48.132;-1.210;2023-08-06T08:38:13;3.28;;;1.13;;
17790;SDS011;9019;48.132;-1.210;2023-08-06T08:40:41;5.45;;;1.33;;
17790;SDS011;9019;48.132;-1.210;2023-08-06T08:43:10;5.85;;;1.40;;
17790;SDS011;9019;48.132;-1.210;2023-08-06T08:45:39;4.88;;;1.27;;
17790;SDS011;9019;48.132;-1.210;2023-08-06T08:48:06;4.57;;;1.17;;
17790;SDS011;9019;48.132;-1.210;2023-08-06T08:50:35;7.10;;;1.60;;
17790;SDS011;9019;48.132;-1.210;2023-08-06T08:53:02;5.47;;;1.20;;
17790;SDS011;9019;48.132;-1.210;2023-08-06T08:55:30;3.00;;;0.80;;
17790;SDS011;9019;48.132;-1.210;2023-08-06T08:57:57;2.97;;;1.02;;
17790;SDS011;9019;48.132;-1.210;2023-08-06T09:00:25;2.28;;;0.77;;
17790;SDS011;9019;48.132;-1.210;2023-08-06T09:02:52;4.60;;;1.10;;
17790;SDS011;9019;48.132;-1.210;2023-08-06T09:05:20;4.35;;;1.23;;
17790;SDS011;9019;48.132;-1.210;2023-08-06T09:07:49;4.95;;;1.35;;
17790;SDS011;9019;48.132;-1.210;2023-08-06T09:10:19;4.88;;;1.10;;
17790;SDS011;9019;48.132;-1.210;2023-08-06T09:12:48;4.95;;;1.33;;
17790;SDS011;9019;48.132;-1.210;2023-08-06T09:15:18;8.02;;;1.67;;
17790;SDS011;9019;48.132;-1.210;2023-08-06T09:17:45;5.25;;;1.50;;
17790;SDS011;9019;48.132;-1.210;2023-08-06T09:20:13;5.13;;;1.58;;
17790;SDS011;9019;48.132;-1.210;2023-08-06T09:22:40;4.75;;;1.55;;
17790;SDS011;9019;48.132;-1.210;2023-08-06T09:25:11;3.70;;;1.23;;
17790;SDS011;9019;48.132;-1.210;2023-08-06T09:27:38;5.00;;;1.20;;
17790;SDS011;9019;48.132;-1.210;2023-08-06T09:30:06;3.38;;;1.30;;
17790;SDS011;9019;48.132;-1.210;2023-08-06T09:32:46;3.70;;;1.10;;
17790;SDS011;9019;48.132;-1.210;2023-08-06T09:35:16;4.57;;;1.27;;
17790;SDS011;9019;48.132;-1.210;2023-08-06T09:37:43;4.97;;;1.20;;
17790;SDS011;9019;48.132;-1.210;2023-08-06T09:40:28;3.15;;;1.10;;
17790;SDS011;9019;48.132;-1.210;2023-08-06T09:42:56;4.22;;;1.02;;
17790;SDS011;9019;48.132;-1.210;2023-08-06T09:45:28;3.80;;;1.25;;
17790;SDS011;9019;48.132;-1.210;2023-08-06T09:47:55;3.67;;;1.20;;
17790;SDS011;9019;48.132;-1.210;2023-08-06T09:50:23;4.88;;;1.35;;
17790;SDS011;9019;48.132;-1.210;2023-08-06T09:52:55;4.95;;;1.40;;
17790;SDS011;9019;48.132;-1.210;2023-08-06T09:55:23;5.85;;;1.45;;
17790;SDS011;9019;48.132;-1.210;2023-08-06T09:57:53;5.20;;;1.30;;
17790;SDS011;9019;48.132;-1.210;2023-08-06T10:00:21;6.25;;;1.38;;
17790;SDS011;9019;48.132;-1.210;2023-08-06T10:02:49;3.78;;;0.93;;
17790;SDS011;9019;48.132;-1.210;2023-08-06T10:05:19;5.15;;;1.35;;
17790;SDS011;9019;48.132;-1.210;2023-08-06T10:07:47;4.95;;;0.95;;
17790;SDS011;9019;48.132;-1.210;2023-08-06T10:10:16;4.60;;;1.20;;
17790;SDS011;9019;48.132;-1.210;2023-08-06T10:12:44;2.45;;;0.93;;
17790;SDS011;9019;48.132;-1.210;2023-08-06T10:15:17;3.05;;;1.20;;
17790;SDS011;9019;48.132;-1.210;2023-08-06T10:17:46;3.75;;;1.00;;
17790;SDS011;9019;48.132;-1.210;2023-08-06T10:20:14;3.60;;;1.38;;
17790;SDS011;9019;48.132;-1.210;2023-08-06T10:22:42;2.60;;;0.90;;
17790;SDS011;9019;48.132;-1.210;2023-08-06T10:25:10;3.75;;;0.90;;
17790;SDS011;9019;48.132;-1.210;2023-08-06T10:27:39;2.20;;;0.70;;
17790;SDS011;9019;48.132;-1.210;2023-08-06T10:30:36;2.65;;;0.82;;
17790;SDS011;9019;48.132;-1.210;2023-08-06T10:33:07;3.63;;;0.90;;
17790;SDS011;9019;48.132;-1.210;2023-08-06T10:35:35;2.20;;;0.80;;
17790;SDS011;9019;48.132;-1.210;2023-08-06T10:38:03;2.60;;;0.80;;
17790;SDS011;9019;48.132;-1.210;2023-08-06T10:40:31;2.88;;;0.90;;
17790;SDS011;9019;48.132;-1.210;2023-08-06T10:42:58;3.50;;;0.80;;
17790;SDS011;9019;48.132;-1.210;2023-08-06T10:45:27;0.88;;;0.50;;
17790;SDS011;9019;48.132;-1.210;2023-08-06T10:47:55;7.10;;;1.00;;
17790;SDS011;9019;48.132;-1.210;2023-08-06T10:50:23;3.28;;;0.90;;
17790;SDS011;9019;48.132;-1.210;2023-08-06T10:52:51;1.58;;;0.60;;
17790;SDS011;9019;48.132;-1.210;2023-08-06T10:55:25;2.25;;;0.73;;
17790;SDS011;9019;48.132;-1.210;2023-08-06T10:57:52;2.00;;;0.50;;
17790;SDS011;9019;48.132;-1.210;2023-08-06T11:00:20;1.65;;;1.00;;
17790;SDS011;9019;48.132;-1.210;2023-08-06T11:02:51;1.25;;;0.60;;
17790;SDS011;9019;48.132;-1.210;2023-08-06T11:05:20;2.80;;;0.75;;
17790;SDS011;9019;48.132;-1.210;2023-08-06T11:07:47;1.50;;;0.50;;
17790;SDS011;9019;48.132;-1.210;2023-08-06T11:10:16;2.10;;;0.75;;
17790;SDS011;9019;48.132;-1.210;2023-08-06T11:12:44;2.03;;;0.70;;
17790;SDS011;9019;48.132;-1.210;2023-08-06T11:15:11;2.78;;;0.70;;
17790;SDS011;9019;48.132;-1.210;2023-08-06T11:17:39;2.35;;;0.80;;
17790;SDS011;9019;48.132;-1.210;2023-08-06T11:20:09;2.58;;;0.82;;
17790;SDS011;9019;48.132;-1.210;2023-08-06T11:22:37;2.53;;;0.90;;
17790;SDS011;9019;48.132;-1.210;2023-08-06T11:25:05;2.45;;;0.77;;
17790;SDS011;9019;48.132;-1.210;2023-08-06T11:27:33;3.65;;;0.80;;
17790;SDS011;9019;48.132;-1.210;2023-08-06T11:30:00;3.35;;;0.70;;
17790;SDS011;9019;48.132;-1.210;2023-08-06T11:32:28;1.88;;;0.80;;
17790;SDS011;9019;48.132;-1.210;2023-08-06T11:34:56;2.13;;;0.70;;
17790;SDS011;9019;48.132;-1.210;2023-08-06T11:37:25;2.97;;;0.60;;
17790;SDS011;9019;48.132;-1.210;2023-08-06T11:39:52;3.15;;;0.80;;
17790;SDS011;9019;48.132;-1.210;2023-08-06T11:42:19;6.22;;;0.85;;
17790;SDS011;9019;48.132;-1.210;2023-08-06T11:44:47;3.63;;;0.73;;
17790;SDS011;9019;48.132;-1.210;2023-08-06T11:47:15;3.38;;;0.80;;
17790;SDS011;9019;48.132;-1.210;2023-08-06T11:49:43;1.75;;;0.60;;
17790;SDS011;9019;48.132;-1.210;2023-08-06T11:52:13;1.92;;;0.60;;
17790;SDS011;9019;48.132;-1.210;2023-08-06T11:54:42;3.67;;;0.70;;
17790;SDS011;9019;48.132;-1.210;2023-08-06T11:57:10;2.50;;;0.80;;
17790;SDS011;9019;48.132;-1.210;2023-08-06T11:59:37;2.97;;;0.80;;
17790;SDS011;9019;48.132;-1.210;2023-08-06T12:02:05;4.28;;;0.80;;
17790;SDS011;9019;48.132;-1.210;2023-08-06T12:07:17;3.08;;;0.60;;
17790;SDS011;9019;48.132;-1.210;2023-08-06T12:09:46;2.88;;;0.75;;
17790;SDS011;9019;48.132;-1.210;2023-08-06T12:12:13;1.83;;;0.70;;
17790;SDS011;9019;48.132;-1.210;2023-08-06T12:14:41;3.97;;;0.73;;
17790;SDS011;9019;48.132;-1.210;2023-08-06T12:17:08;0.90;;;0.60;;
17790;SDS011;9019;48.132;-1.210;2023-08-06T12:19:36;2.15;;;0.60;;
17790;SDS011;9019;48.132;-1.210;2023-08-06T12:22:03;1.98;;;0.80;;
17790;SDS011;9019;48.132;-1.210;2023-08-06T12:24:30;3.45;;;0.70;;
17790;SDS011;9019;48.132;-1.210;2023-08-06T12:26:59;3.40;;;0.90;;
17790;SDS011;9019;48.132;-1.210;2023-08-06T12:29:28;2.83;;;0.68;;
17790;SDS011;9019;48.132;-1.210;2023-08-06T12:31:56;2.78;;;0.80;;
17790;SDS011;9019;48.132;-1.210;2023-08-06T12:34:23;2.67;;;0.60;;
17790;SDS011;9019;48.132;-1.210;2023-08-06T12:36:50;1.73;;;0.77;;
17790;SDS011;9019;48.132;-1.210;2023-08-06T12:39:17;3.80;;;0.77;;
17790;SDS011;9019;48.132;-1.210;2023-08-06T12:41:45;3.53;;;0.90;;
17790;SDS011;9019;48.132;-1.210;2023-08-06T12:44:14;2.25;;;0.73;;
17790;SDS011;9019;48.132;-1.210;2023-08-06T12:46:41;3.55;;;0.93;;
17790;SDS011;9019;48.132;-1.210;2023-08-06T12:49:08;2.35;;;0.70;;
17790;SDS011;9019;48.132;-1.210;2023-08-06T12:51:36;2.20;;;0.70;;
17790;SDS011;9019;48.132;-1.210;2023-08-06T12:54:03;2.25;;;0.80;;
17790;SDS011;9019;48.132;-1.210;2023-08-06T12:56:30;2.97;;;0.90;;
17790;SDS011;9019;48.132;-1.210;2023-08-06T12:58:58;2.03;;;0.73;;
17790;SDS011;9019;48.132;-1.210;2023-08-06T13:01:26;2.30;;;0.60;;
17790;SDS011;9019;48.132;-1.210;2023-08-06T13:03:54;3.63;;;0.73;;
17790;SDS011;9019;48.132;-1.210;2023-08-06T13:06:21;3.75;;;0.73;;
17790;SDS011;9019;48.132;-1.210;2023-08-06T13:08:48;1.90;;;0.60;;
17790;SDS011;9019;48.132;-1.210;2023-08-06T13:11:15;2.20;;;0.73;;
17790;SDS011;9019;48.132;-1.210;2023-08-06T13:13:44;3.50;;;0.85;;
17790;SDS011;9019;48.132;-1.210;2023-08-06T13:16:11;3.30;;;0.90;;
17790;SDS011;9019;48.132;-1.210;2023-08-06T13:18:40;2.03;;;0.80;;
17790;SDS011;9019;48.132;-1.210;2023-08-06T13:21:07;1.98;;;0.60;;
17790;SDS011;9019;48.132;-1.210;2023-08-06T13:23:34;2.95;;;0.75;;
17790;SDS011;9019;48.132;-1.210;2023-08-06T13:26:02;1.92;;;0.70;;
17790;SDS011;9019;48.132;-1.210;2023-08-06T13:28:29;3.33;;;0.68;;
17790;SDS011;9019;48.132;-1.210;2023-08-06T13:30:57;2.55;;;0.63;;
17790;SDS011;9019;48.132;-1.210;2023-08-06T13:33:24;3.03;;;0.63;;
17790;SDS011;9019;48.132;-1.210;2023-08-06T13:35:53;1.63;;;0.75;;
17790;SDS011;9019;48.132;-1.210;2023-08-06T13:38:21;1.75;;;0.80;;
17790;SDS011;9019;48.132;-1.210;2023-08-06T13:40:48;2.08;;;0.70;;
17790;SDS011;9019;48.132;-1.210;2023-08-06T13:43:16;1.98;;;0.80;;
17790;SDS011;9019;48.132;-1.210;2023-08-06T13:45:44;1.73;;;0.57;;
17790;SDS011;9019;48.132;-1.210;2023-08-06T13:48:11;2.13;;;0.70;;
17790;SDS011;9019;48.132;-1.210;2023-08-06T13:50:38;1.42;;;0.43;;
17790;SDS011;9019;48.132;-1.210;2023-08-06T13:53:07;2.20;;;0.60;;
17790;SDS011;9019;48.132;-1.210;2023-08-06T13:55:34;2.83;;;0.65;;
17790;SDS011;9019;48.132;-1.210;2023-08-06T13:58:01;1.23;;;0.65;;
17790;SDS011;9019;48.132;-1.210;2023-08-06T14:00:29;1.65;;;0.60;;
17790;SDS011;9019;48.132;-1.210;2023-08-06T14:02:56;2.15;;;0.50;;
17790;SDS011;9019;48.132;-1.210;2023-08-06T14:05:23;1.60;;;0.60;;
17790;SDS011;9019;48.132;-1.210;2023-08-06T14:07:51;2.25;;;0.90;;
17790;SDS011;9019;48.132;-1.210;2023-08-06T14:10:19;2.15;;;0.57;;
17790;SDS011;9019;48.132;-1.210;2023-08-06T14:12:47;1.38;;;0.70;;
17790;SDS011;9019;48.132;-1.210;2023-08-06T14:15:14;1.13;;;0.63;;
17790;SDS011;9019;48.132;-1.210;2023-08-06T14:17:41;2.67;;;0.90;;
17790;SDS011;9019;48.132;-1.210;2023-08-06T14:20:09;1.58;;;0.60;;
17790;SDS011;9019;48.132;-1.210;2023-08-06T14:22:37;1.83;;;0.80;;
17790;SDS011;9019;48.132;-1.210;2023-08-06T14:25:04;1.50;;;0.60;;
17790;SDS011;9019;48.132;-1.210;2023-08-06T14:27:33;2.78;;;0.77;;
17790;SDS011;9019;48.132;-1.210;2023-08-06T14:30:00;2.00;;;0.70;;
17790;SDS011;9019;48.132;-1.210;2023-08-06T14:32:28;1.60;;;0.98;;
17790;SDS011;9019;48.132;-1.210;2023-08-06T14:34:55;1.92;;;0.80;;
17790;SDS011;9019;48.132;-1.210;2023-08-06T14:37:24;1.95;;;0.70;;
17790;SDS011;9019;48.132;-1.210;2023-08-06T14:39:51;1.58;;;0.70;;
17790;SDS011;9019;48.132;-1.210;2023-08-06T14:42:18;1.05;;;0.55;;
17790;SDS011;9019;48.132;-1.210;2023-08-06T14:44:47;1.85;;;0.60;;
17790;SDS011;9019;48.132;-1.210;2023-08-06T14:47:15;2.40;;;0.60;;
17790;SDS011;9019;48.132;-1.210;2023-08-06T14:49:42;1.83;;;0.65;;
17790;SDS011;9019;48.132;-1.210;2023-08-06T14:52:09;1.73;;;0.70;;